createdAt,value
2023-04-28T00:00:02.968Z,8.90
2023-04-28T00:02:30.895Z,9.00
2023-04-28T00:04:58.988Z,9.00
2023-04-28T00:07:26.974Z,9.00
2023-04-28T00:09:54.797Z,9.00
2023-04-28T00:12:22.562Z,9.00
2023-04-28T00:14:51.776Z,8.90
2023-04-28T00:17:19.627Z,9.00
2023-04-28T00:19:47.397Z,9.00
2023-04-28T00:22:15.387Z,9.00
2023-04-28T00:24:43.240Z,9.00
2023-04-28T00:27:11.293Z,9.00
2023-04-28T00:29:39.104Z,9.10
2023-04-28T00:32:08.416Z,9.10
2023-04-28T00:34:37.282Z,9.10
2023-04-28T00:37:05.209Z,9.10
2023-04-28T00:39:33.017Z,9.10
2023-04-28T00:42:01.998Z,9.00
2023-04-28T00:44:29.795Z,9.10
2023-04-28T00:46:58.870Z,9.00
2023-04-28T00:49:28.287Z,9.00
2023-04-28T00:51:56.087Z,9.10
2023-04-28T00:54:24.209Z,9.10
2023-04-28T00:56:52.085Z,9.10
2023-04-28T00:59:19.810Z,9.10
2023-04-28T01:01:47.728Z,9.10
2023-04-28T01:04:16.271Z,9.00
2023-04-28T01:06:46.446Z,9.10
2023-04-28T01:09:14.356Z,9.00
2023-04-28T01:11:42.104Z,9.10
2023-04-28T01:14:09.861Z,9.00
2023-04-28T01:16:38.960Z,9.00
2023-04-28T01:19:09.058Z,9.00
2023-04-28T01:21:36.994Z,8.90
2023-04-28T01:24:07.602Z,8.90
2023-04-28T01:26:35.356Z,8.90
2023-04-28T01:29:03.164Z,8.90
2023-04-28T01:31:31.519Z,8.90
2023-04-28T01:33:59.688Z,8.90
2023-04-28T01:36:28.489Z,8.90
2023-04-28T01:38:56.322Z,8.90
2023-04-28T01:41:25.506Z,9.00
2023-04-28T01:43:53.264Z,8.90
2023-04-28T01:46:21.205Z,8.90
2023-04-28T01:48:49.250Z,9.00
2023-04-28T01:51:17.247Z,9.00
2023-04-28T01:53:45.178Z,9.00
2023-04-28T01:56:13.002Z,9.00
2023-04-28T01:58:42.105Z,9.00
2023-04-28T02:01:10.000Z,9.00
2023-04-28T02:03:38.056Z,9.00
2023-04-28T02:06:06.213Z,9.00
2023-04-28T02:08:34.039Z,9.00
2023-04-28T02:11:03.803Z,9.00
2023-04-28T02:13:31.565Z,9.00
2023-04-28T02:16:02.902Z,9.00
2023-04-28T02:18:31.176Z,9.00
2023-04-28T02:20:58.964Z,9.10
2023-04-28T02:23:26.767Z,9.10
2023-04-28T02:26:03.521Z,9.10
2023-04-28T02:28:31.305Z,9.10
2023-04-28T02:31:07.100Z,9.20
2023-04-28T02:33:35.008Z,9.20
2023-04-28T02:36:03.455Z,9.30
2023-04-28T02:38:31.556Z,9.30
2023-04-28T02:41:00.810Z,9.30
2023-04-28T02:43:28.925Z,9.40
2023-04-28T02:45:56.867Z,9.20
2023-04-28T02:48:26.414Z,9.30
2023-04-28T02:50:54.390Z,9.20
2023-04-28T02:53:23.343Z,9.20
2023-04-28T02:55:51.251Z,9.20
2023-04-28T02:58:19.168Z,9.30
2023-04-28T03:00:47.092Z,9.30
2023-04-28T03:03:15.213Z,9.20
2023-04-28T03:05:44.494Z,9.30
2023-04-28T03:08:12.248Z,9.30
2023-04-28T03:10:40.096Z,9.30
2023-04-28T03:13:08.079Z,9.40
2023-04-28T03:15:36.007Z,9.40
2023-04-28T03:18:03.961Z,9.40
2023-04-28T03:20:31.778Z,9.40
2023-04-28T03:23:01.857Z,9.20
2023-04-28T03:25:29.666Z,9.30
2023-04-28T03:27:57.417Z,9.30
2023-04-28T03:30:25.188Z,9.40
2023-04-28T03:32:53.232Z,9.30
2023-04-28T03:35:21.486Z,9.40
2023-04-28T03:37:49.318Z,9.40
2023-04-28T03:40:18.477Z,9.20
2023-04-28T03:42:46.854Z,9.30
2023-04-28T03:45:14.625Z,9.30
2023-04-28T03:47:42.488Z,9.40
2023-04-28T03:50:10.689Z,9.40
2023-04-28T03:52:38.702Z,9.30
2023-04-28T03:55:07.247Z,9.40
2023-04-28T03:57:36.540Z,9.30
2023-04-28T04:00:05.236Z,9.30
2023-04-28T04:02:33.284Z,9.30
2023-04-28T04:05:01.331Z,9.20
2023-04-28T04:07:29.326Z,9.20
2023-04-28T04:09:57.150Z,9.30
2023-04-28T04:12:24.968Z,9.20
2023-04-28T04:14:54.065Z,9.30
2023-04-28T04:17:21.924Z,9.20
2023-04-28T04:19:49.729Z,9.20
2023-04-28T04:22:17.492Z,9.30
2023-04-28T04:24:45.293Z,9.40
2023-04-28T04:27:13.121Z,9.40
2023-04-28T04:29:41.033Z,9.40
2023-04-28T04:32:10.217Z,9.40
2023-04-28T04:34:37.978Z,9.40
2023-04-28T04:37:06.034Z,9.40
2023-04-28T04:39:33.873Z,9.40
2023-04-28T04:42:13.315Z,9.40
2023-04-28T04:44:50.582Z,9.40
2023-04-28T04:47:20.205Z,9.40
2023-04-28T04:49:48.554Z,9.50
2023-04-28T04:52:16.378Z,9.60
2023-04-28T04:54:44.164Z,9.60
2023-04-28T04:57:12.928Z,9.60
2023-04-28T04:59:40.980Z,9.70
2023-04-28T05:02:08.805Z,9.70
2023-04-28T05:04:38.065Z,9.70
2023-04-28T05:07:05.987Z,9.70
2023-04-28T05:09:33.948Z,9.70
2023-04-28T05:12:01.923Z,9.70
2023-04-28T05:14:29.691Z,9.70
2023-04-28T05:16:57.695Z,9.70
2023-04-28T05:19:25.624Z,9.80
2023-04-28T05:21:55.049Z,9.70
2023-04-28T05:24:23.881Z,9.80
2023-04-28T05:26:52.167Z,9.80
2023-04-28T05:29:20.042Z,9.80
2023-04-28T05:31:47.975Z,9.90
2023-04-28T05:34:16.076Z,9.80
2023-04-28T05:36:45.728Z,9.80
2023-04-28T05:39:14.877Z,9.80
2023-04-28T05:41:42.804Z,9.80
2023-04-28T05:44:10.595Z,9.90
2023-04-28T05:46:38.575Z,9.90
2023-04-28T05:49:06.556Z,9.90
2023-04-28T05:51:34.759Z,9.90
2023-04-28T05:54:02.593Z,9.90
2023-04-28T05:56:31.895Z,9.90
2023-04-28T05:59:03.909Z,9.90
2023-04-28T06:01:32.004Z,9.90
2023-04-28T06:04:00.148Z,9.90
2023-04-28T06:06:28.805Z,10.00
2023-04-28T06:08:57.132Z,10.00
2023-04-28T06:11:24.918Z,10.00
2023-04-28T06:13:54.028Z,10.00
2023-04-28T06:16:23.347Z,10.00
2023-04-28T06:18:51.364Z,10.00
2023-04-28T06:21:21.809Z,10.00
2023-04-28T06:23:49.933Z,10.00
2023-04-28T06:26:18.533Z,10.10
2023-04-28T06:28:46.616Z,10.20
2023-04-28T06:31:16.351Z,10.20
2023-04-28T06:33:44.159Z,10.30
2023-04-28T06:36:13.985Z,10.40
2023-04-28T06:38:42.886Z,10.40
2023-04-28T06:41:11.025Z,10.50
2023-04-28T06:43:39.079Z,10.60
2023-04-28T06:46:07.089Z,10.60
2023-04-28T06:48:36.378Z,10.70
2023-04-28T06:51:04.795Z,10.90
2023-04-28T06:53:32.639Z,11.10
2023-04-28T06:56:00.458Z,11.40
2023-04-28T06:58:28.514Z,11.60
2023-04-28T07:00:56.418Z,11.90
2023-04-28T07:03:24.403Z,12.00
2023-04-28T07:05:53.702Z,12.10
2023-04-28T07:08:21.528Z,12.20
2023-04-28T07:10:49.357Z,12.30
2023-04-28T07:13:17.270Z,12.40
2023-04-28T07:15:45.072Z,12.50
2023-04-28T07:18:12.987Z,12.50
2023-04-28T07:20:40.897Z,12.50
2023-04-28T07:23:10.022Z,12.50
2023-04-28T07:25:38.219Z,12.50
2023-04-28T07:28:06.806Z,12.50
2023-04-28T07:30:34.642Z,12.50
2023-04-28T07:33:03.153Z,12.50
2023-04-28T07:35:31.024Z,12.50
2023-04-28T07:37:59.176Z,12.50
2023-04-28T07:40:28.274Z,12.50
2023-04-28T07:42:56.500Z,12.50
2023-04-28T07:45:24.461Z,12.50
2023-04-28T07:47:52.270Z,12.60
2023-04-28T07:50:20.169Z,12.60
2023-04-28T07:52:47.959Z,12.60
2023-04-28T07:55:16.014Z,12.60
2023-04-28T07:57:45.225Z,12.50
2023-04-28T08:00:14.133Z,12.50
2023-04-28T08:02:42.325Z,12.50
2023-04-28T08:05:11.332Z,12.50
2023-04-28T08:07:39.420Z,12.50
2023-04-28T08:10:11.641Z,12.40
2023-04-28T08:12:40.780Z,12.40
2023-04-28T08:15:10.571Z,12.40
2023-04-28T08:17:38.907Z,12.40
2023-04-28T08:20:08.774Z,12.40
2023-04-28T08:22:36.595Z,12.50
2023-04-28T08:25:04.698Z,12.50
2023-04-28T08:27:34.022Z,12.40
2023-04-28T08:30:01.833Z,12.40
2023-04-28T08:32:31.103Z,12.40
2023-04-28T08:34:58.956Z,12.30
2023-04-28T08:37:27.775Z,12.20
2023-04-28T08:40:02.175Z,12.20
2023-04-28T08:42:31.204Z,12.10
2023-04-28T08:45:00.254Z,12.10
2023-04-28T08:47:35.490Z,12.10
2023-04-28T08:50:08.292Z,12.10
2023-04-28T08:52:36.724Z,12.10
2023-04-28T08:55:08.716Z,12.10
2023-04-28T08:57:41.379Z,12.10
2023-04-28T09:00:10.513Z,12.10
2023-04-28T09:02:42.342Z,12.20
2023-04-28T09:05:11.571Z,12.20
2023-04-28T09:07:40.220Z,12.30
2023-04-28T09:10:22.086Z,12.40
2023-04-28T09:12:52.980Z,12.40
2023-04-28T09:15:30.600Z,12.50
2023-04-28T09:18:01.867Z,12.50
2023-04-28T09:20:31.613Z,12.50
2023-04-28T09:23:14.743Z,12.50
2023-04-28T09:25:56.174Z,12.50
2023-04-28T09:28:24.328Z,12.50
2023-04-28T09:30:52.303Z,12.40
2023-04-28T09:33:22.030Z,12.40
2023-04-28T09:35:50.305Z,12.30
2023-04-28T09:38:19.468Z,12.20
2023-04-28T09:40:54.322Z,12.10
2023-04-28T09:43:26.776Z,12.10
2023-04-28T09:45:55.446Z,12.10
2023-04-28T09:48:32.643Z,12.10
2023-04-28T09:51:01.515Z,12.10
2023-04-28T09:53:30.250Z,12.20
2023-04-28T09:55:59.157Z,12.20
2023-04-28T09:58:28.956Z,12.20
2023-04-28T10:00:58.148Z,12.20
2023-04-28T10:03:29.562Z,12.20
2023-04-28T10:06:00.323Z,12.20
2023-04-28T10:08:28.416Z,12.20
2023-04-28T10:10:57.750Z,12.20
2023-04-28T10:13:26.535Z,12.20
2023-04-28T10:15:55.918Z,12.20
2023-04-28T10:18:24.943Z,12.20
2023-04-28T10:20:58.735Z,12.20
2023-04-28T10:23:54.018Z,12.10
2023-04-28T10:26:23.813Z,12.10
2023-04-28T10:28:53.065Z,12.10
2023-04-28T10:31:22.962Z,12.20
2023-04-28T10:33:51.364Z,12.10
2023-04-28T10:36:50.736Z,12.20
2023-04-28T10:39:20.222Z,12.20
2023-04-28T10:41:49.044Z,12.20
2023-04-28T10:44:44.781Z,12.20
2023-04-28T10:47:12.766Z,12.20
2023-04-28T10:50:06.895Z,12.20
2023-04-28T10:52:51.476Z,12.20
2023-04-28T10:55:33.152Z,12.20
2023-04-28T10:58:36.257Z,12.20
2023-04-28T11:01:27.440Z,12.20
2023-04-28T11:04:02.829Z,12.20
2023-04-28T11:06:34.264Z,12.20
2023-04-28T11:09:03.867Z,12.30
2023-04-28T11:11:34.991Z,12.30
2023-04-28T11:14:34.922Z,12.30
2023-04-28T11:17:04.359Z,12.30
2023-04-28T11:19:34.082Z,12.20
2023-04-28T11:22:04.434Z,12.20
2023-04-28T11:24:32.462Z,12.00
2023-04-28T11:27:02.123Z,12.10
2023-04-28T11:29:34.359Z,12.00
2023-04-28T11:32:02.281Z,11.90
2023-04-28T11:34:30.448Z,11.90
2023-04-28T11:36:58.367Z,12.00
2023-04-28T11:39:30.082Z,12.00
2023-04-28T11:41:58.441Z,12.20
2023-04-28T11:44:29.348Z,12.20
2023-04-28T11:47:00.698Z,12.30
2023-04-28T11:49:30.202Z,12.40
2023-04-28T11:52:00.152Z,12.40
2023-04-28T11:54:29.457Z,12.50
2023-04-28T11:56:58.824Z,12.50
2023-04-28T11:59:29.319Z,12.40
2023-04-28T12:01:59.282Z,12.40
2023-04-28T12:04:28.758Z,12.40
2023-04-28T12:07:04.692Z,12.50
2023-04-28T12:09:33.554Z,12.50
2023-04-28T12:12:03.509Z,12.50
2023-04-28T12:14:35.383Z,12.50
2023-04-28T12:17:04.079Z,12.50
2023-04-28T12:19:44.096Z,12.50
2023-04-28T12:22:12.309Z,12.60
2023-04-28T12:24:40.868Z,12.70
2023-04-28T12:27:21.552Z,12.80
2023-04-28T12:29:50.961Z,13.00
2023-04-28T12:32:20.164Z,13.10
2023-04-28T12:34:48.177Z,13.00
2023-04-28T12:37:16.859Z,13.10
2023-04-28T12:39:44.905Z,13.00
2023-04-28T12:42:13.130Z,13.10
2023-04-28T12:44:41.003Z,13.20
2023-04-28T12:47:11.720Z,13.20
2023-04-28T12:49:39.857Z,13.20
2023-04-28T12:52:07.916Z,13.10
2023-04-28T12:54:35.805Z,13.20
2023-04-28T12:57:04.017Z,13.20
2023-04-28T12:59:32.605Z,13.30
2023-04-28T13:02:00.538Z,13.30
2023-04-28T13:04:30.175Z,13.40
2023-04-28T13:06:58.865Z,13.30
2023-04-28T13:09:27.228Z,13.40
2023-04-28T13:11:55.102Z,13.40
2023-04-28T13:14:23.954Z,13.60
2023-04-28T13:16:53.074Z,13.50
2023-04-28T13:19:20.925Z,13.70
2023-04-28T13:21:50.468Z,13.80
2023-04-28T13:24:18.476Z,13.90
2023-04-28T13:26:46.295Z,13.80
2023-04-28T13:29:14.317Z,13.80
2023-04-28T13:31:42.255Z,13.80
2023-04-28T13:34:15.746Z,13.80
2023-04-28T13:36:43.876Z,13.80
2023-04-28T13:39:14.594Z,13.90
2023-04-28T13:41:42.850Z,14.00
2023-04-28T13:44:10.707Z,14.10
2023-04-28T13:46:38.593Z,14.10
2023-04-28T13:49:06.437Z,14.20
2023-04-28T13:51:34.278Z,14.30
2023-04-28T13:54:04.176Z,14.20
2023-04-28T13:56:33.579Z,14.20
2023-04-28T13:59:01.577Z,14.20
2023-04-28T14:01:29.809Z,14.30
2023-04-28T14:03:58.034Z,14.50
2023-04-28T14:06:26.248Z,14.40
2023-04-28T14:08:54.129Z,14.50
2023-04-28T14:11:22.570Z,14.70
2023-04-28T14:13:51.711Z,14.70
2023-04-28T14:16:19.618Z,14.80
2023-04-28T14:18:47.538Z,14.80
2023-04-28T14:21:15.323Z,14.90
2023-04-28T14:23:43.118Z,15.00
2023-04-28T14:26:10.997Z,14.90
2023-04-28T14:28:38.802Z,15.00
2023-04-28T14:31:08.676Z,15.00
2023-04-28T14:33:37.208Z,14.80
2023-04-28T14:36:06.006Z,14.70
2023-04-28T14:38:33.795Z,14.70
2023-04-28T14:41:01.631Z,14.70
2023-04-28T14:43:29.396Z,14.60
2023-04-28T14:45:57.209Z,14.50
2023-04-28T14:48:26.744Z,14.60
2023-04-28T14:50:56.113Z,14.50
2023-04-28T14:53:24.677Z,14.50
2023-04-28T14:55:52.558Z,14.50
2023-04-28T14:58:20.461Z,14.50
2023-04-28T15:00:48.488Z,14.60
2023-04-28T15:03:16.502Z,14.50
2023-04-28T15:05:45.867Z,14.50
2023-04-28T15:08:13.856Z,14.50
2023-04-28T15:10:42.131Z,14.50
2023-04-28T15:13:10.111Z,14.50
2023-04-28T15:15:38.069Z,14.40
2023-04-28T15:18:06.058Z,14.30
2023-04-28T15:20:37.184Z,14.20
2023-04-28T15:23:06.516Z,14.20
2023-04-28T15:25:34.305Z,14.10
2023-04-28T15:28:03.845Z,14.20
2023-04-28T15:30:32.191Z,14.10
2023-04-28T15:33:00.177Z,14.00
2023-04-28T15:35:28.665Z,13.90
2023-04-28T15:37:56.664Z,13.90
2023-04-28T15:40:25.847Z,13.80
2023-04-28T15:42:53.618Z,13.70
2023-04-28T15:45:22.583Z,13.70
2023-04-28T15:47:51.729Z,13.60
2023-04-28T15:50:20.708Z,13.60
2023-04-28T15:52:50.036Z,13.50
2023-04-28T15:55:19.725Z,13.50
2023-04-28T15:57:49.596Z,13.50
2023-04-28T16:00:17.602Z,13.50
2023-04-28T16:02:46.197Z,13.50
2023-04-28T16:05:23.690Z,13.50
2023-04-28T16:07:52.735Z,13.50
2023-04-28T16:10:20.578Z,13.50
2023-04-28T16:13:00.514Z,13.40
2023-04-28T16:15:28.872Z,13.40
2023-04-28T16:17:56.853Z,13.40
2023-04-28T16:20:24.980Z,13.30
2023-04-28T16:22:53.261Z,13.30
2023-04-28T16:25:21.147Z,13.30
2023-04-28T16:27:48.955Z,13.30
2023-04-28T16:30:18.576Z,13.30
2023-04-28T16:32:46.657Z,13.20
2023-04-28T16:35:15.433Z,13.20
2023-04-28T16:37:44.012Z,13.30
2023-04-28T16:40:13.181Z,13.20
2023-04-28T16:42:42.016Z,13.20
2023-04-28T16:45:11.088Z,13.20
2023-04-28T16:47:42.247Z,13.20
2023-04-28T16:50:11.325Z,13.20
2023-04-28T16:52:39.134Z,13.20
2023-04-28T16:55:08.159Z,13.20
2023-04-28T16:57:35.975Z,13.10
2023-04-28T17:00:04.349Z,13.10
2023-04-28T17:02:33.318Z,13.10
2023-04-28T17:05:02.560Z,13.10
2023-04-28T17:07:30.399Z,13.10
2023-04-28T17:09:58.364Z,13.10
2023-04-28T17:12:26.456Z,13.10
2023-04-28T17:14:54.543Z,13.10
2023-04-28T17:17:22.522Z,13.00
2023-04-28T17:19:50.600Z,13.10
2023-04-28T17:22:19.960Z,13.00
2023-04-28T17:24:47.799Z,13.00
2023-04-28T17:27:16.058Z,13.10
2023-04-28T17:29:44.283Z,13.10
2023-04-28T17:32:12.171Z,13.10
2023-04-28T17:34:41.003Z,13.10
2023-04-28T17:37:08.952Z,13.00
2023-04-28T17:39:38.707Z,13.10
2023-04-28T17:42:06.452Z,13.10
2023-04-28T17:44:34.244Z,13.10
2023-04-28T17:47:02.426Z,12.90
2023-04-28T17:49:30.238Z,12.80
2023-04-28T17:51:58.021Z,12.80
2023-04-28T17:54:26.067Z,12.80
2023-04-28T17:56:55.758Z,12.80
2023-04-28T17:59:23.578Z,12.80
2023-04-28T18:01:53.647Z,12.70
2023-04-28T18:04:21.671Z,12.70
2023-04-28T18:06:49.517Z,12.70
2023-04-28T18:09:17.749Z,12.60
2023-04-28T18:11:45.637Z,12.60
2023-04-28T18:14:18.073Z,12.60
2023-04-28T18:16:46.465Z,12.50
2023-04-28T18:19:14.519Z,12.50
2023-04-28T18:21:42.600Z,12.50
2023-04-28T18:24:10.397Z,12.50
2023-04-28T18:26:38.270Z,12.50
2023-04-28T18:29:06.110Z,12.50
2023-04-28T18:31:35.562Z,12.50
2023-04-28T18:34:05.009Z,12.50
2023-04-28T18:36:34.733Z,12.30
2023-04-28T18:39:06.292Z,12.20
2023-04-28T18:41:35.841Z,12.30
2023-04-28T18:44:04.318Z,12.30
2023-04-28T18:46:32.553Z,12.30
2023-04-28T18:49:03.406Z,12.30
2023-04-28T18:51:31.196Z,12.30
2023-04-28T18:53:59.504Z,12.20
2023-04-28T18:56:27.588Z,12.10
2023-04-28T18:58:55.415Z,12.00
2023-04-28T19:01:24.718Z,11.90
2023-04-28T19:03:53.515Z,11.70
2023-04-28T19:06:23.007Z,11.70
2023-04-28T19:08:50.862Z,11.70
2023-04-28T19:11:18.661Z,11.60
2023-04-28T19:13:46.509Z,11.70
2023-04-28T19:16:14.593Z,11.70
2023-04-28T19:18:42.699Z,11.60
2023-04-28T19:21:12.118Z,11.60
2023-04-28T19:23:41.663Z,11.70
2023-04-28T19:26:10.442Z,11.80
2023-04-28T19:28:38.323Z,11.70
2023-04-28T19:31:06.122Z,11.70
2023-04-28T19:33:34.250Z,11.70
2023-04-28T19:36:03.099Z,11.70
2023-04-28T19:38:30.887Z,11.70
2023-04-28T19:41:02.878Z,11.70
2023-04-28T19:43:31.478Z,11.70
2023-04-28T19:45:59.443Z,11.70
2023-04-28T19:48:27.315Z,11.70
2023-04-28T19:50:55.479Z,11.70
2023-04-28T19:53:23.490Z,11.80
2023-04-28T19:55:51.418Z,11.80
2023-04-28T19:58:21.287Z,11.80
2023-04-28T20:00:49.074Z,11.80
2023-04-28T20:03:17.555Z,11.80
2023-04-28T20:05:45.896Z,11.80
2023-04-28T20:08:13.730Z,11.80
2023-04-28T20:10:42.317Z,11.80
2023-04-28T20:13:10.075Z,11.80
2023-04-28T20:15:40.009Z,11.80
2023-04-28T20:18:07.961Z,11.80
2023-04-28T20:20:35.857Z,11.70
2023-04-28T20:23:03.656Z,11.70
2023-04-28T20:25:31.445Z,11.70
2023-04-28T20:27:59.307Z,11.80
2023-04-28T20:30:27.550Z,11.80
2023-04-28T20:32:56.728Z,11.70
2023-04-28T20:35:24.667Z,11.80
2023-04-28T20:37:53.199Z,11.80
2023-04-28T20:40:21.105Z,11.70
2023-04-28T20:42:49.452Z,11.70
2023-04-28T20:45:17.551Z,11.70
2023-04-28T20:47:45.570Z,11.70
2023-04-28T20:50:15.539Z,11.70
2023-04-28T20:52:43.403Z,11.70
2023-04-28T20:55:12.149Z,11.60
2023-04-28T20:57:40.266Z,11.60
2023-04-28T21:00:09.136Z,11.50
2023-04-28T21:02:37.886Z,11.40
2023-04-28T21:05:06.215Z,11.40
2023-04-28T21:07:35.520Z,11.40
2023-04-28T21:10:03.350Z,11.40
2023-04-28T21:12:31.233Z,11.40
2023-04-28T21:15:00.586Z,11.40
2023-04-28T21:17:28.445Z,11.40
2023-04-28T21:19:57.294Z,11.30
2023-04-28T21:22:26.047Z,11.30
2023-04-28T21:24:55.767Z,11.30
2023-04-28T21:27:23.961Z,11.30
2023-04-28T21:29:52.836Z,11.30
2023-04-28T21:32:20.904Z,11.20
2023-04-28T21:34:49.417Z,11.20
2023-04-28T21:37:17.160Z,11.20
2023-04-28T21:39:44.962Z,11.20
2023-04-28T21:42:14.133Z,11.20
2023-04-28T21:44:41.900Z,11.20
2023-04-28T21:47:09.742Z,11.20
2023-04-28T21:49:37.633Z,11.20
2023-04-28T21:52:05.564Z,11.20
2023-04-28T21:54:33.406Z,11.10
2023-04-28T21:57:01.841Z,11.10
2023-04-28T21:59:31.026Z,11.00
2023-04-28T22:01:59.538Z,11.00
2023-04-28T22:04:27.678Z,11.00
2023-04-28T22:06:56.392Z,11.00
2023-04-28T22:09:24.390Z,11.00
2023-04-28T22:11:52.201Z,11.00
2023-04-28T22:14:38.829Z,11.00
2023-04-28T22:17:09.378Z,11.00
2023-04-28T22:19:37.201Z,11.00
2023-04-28T22:22:05.571Z,11.00
2023-04-28T22:24:33.502Z,11.00
2023-04-28T22:27:01.359Z,11.00
2023-04-28T22:29:29.587Z,11.00
2023-04-28T22:31:58.512Z,11.00
2023-04-28T22:34:27.644Z,11.00
2023-04-28T22:36:55.472Z,10.90
2023-04-28T22:39:24.957Z,10.90
2023-04-28T22:41:52.842Z,10.90
2023-04-28T22:44:20.757Z,10.90
2023-04-28T22:46:48.684Z,10.80
2023-04-28T22:49:16.510Z,10.80
2023-04-28T22:51:45.638Z,10.80
2023-04-28T22:54:13.696Z,10.80
2023-04-28T22:56:42.079Z,10.70
2023-04-28T22:59:10.259Z,10.70
2023-04-28T23:01:38.221Z,10.70
2023-04-28T23:04:06.313Z,10.70
2023-04-28T23:06:34.269Z,10.70
2023-04-28T23:09:04.212Z,10.70
2023-04-28T23:11:32.000Z,10.60
2023-04-28T23:13:59.772Z,10.50
2023-04-28T23:16:27.573Z,10.50
2023-04-28T23:18:55.339Z,10.40
2023-04-28T23:21:23.431Z,10.40
2023-04-28T23:23:51.569Z,10.40
2023-04-28T23:26:20.822Z,10.40
2023-04-28T23:28:48.975Z,10.30
2023-04-28T23:31:16.887Z,10.30
2023-04-28T23:33:44.692Z,10.20
2023-04-28T23:36:14.004Z,10.20
2023-04-28T23:38:42.023Z,10.20
2023-04-28T23:41:09.793Z,10.20
2023-04-28T23:43:39.010Z,10.20
2023-04-28T23:46:06.963Z,10.20
2023-04-28T23:48:35.903Z,10.20
2023-04-28T23:51:03.679Z,10.20
2023-04-28T23:53:31.474Z,10.20
2023-04-28T23:55:59.274Z,10.20
2023-04-28T23:58:27.333Z,10.20
